sensor_id;sensor_type;location;lat;lon;timestamp;pressure;altitude;pressure_sealevel;temperature;humidity
42761;BME280;31672;47.638;19.026;2023-03-19T00:02:20;100557.28;;;1.70;77.12
42761;BME280;31672;47.638;19.026;2023-03-19T00:07:23;100555.09;;;1.64;77.54
42761;BME280;31672;47.638;19.026;2023-03-19T00:12:26;100561.56;;;1.58;77.02
42761;BME280;31672;47.638;19.026;2023-03-19T00:17:29;100552.44;;;1.51;77.46
42761;BME280;31672;47.638;19.026;2023-03-19T00:22:32;100544.03;;;1.46;78.04
42761;BME280;31672;47.638;19.026;2023-03-19T00:27:36;100548.94;;;1.38;78.13
42761;BME280;31672;47.638;19.026;2023-03-19T00:32:40;100534.56;;;1.30;78.59
42761;BME280;31672;47.638;19.026;2023-03-19T00:37:43;100528.16;;;1.22;78.77
42761;BME280;31672;47.638;19.026;2023-03-19T00:42:46;100536.41;;;1.16;78.94
42761;BME280;31672;47.638;19.026;2023-03-19T00:47:50;100532.59;;;1.07;79.08
42761;BME280;31672;47.638;19.026;2023-03-19T00:52:53;100527.75;;;1.01;79.21
42761;BME280;31672;47.638;19.026;2023-03-19T00:57:56;100516.75;;;0.96;79.67
42761;BME280;31672;47.638;19.026;2023-03-19T01:02:59;100521.63;;;0.88;79.74
42761;BME280;31672;47.638;19.026;2023-03-19T01:08:03;100529.88;;;0.82;80.16
42761;BME280;31672;47.638;19.026;2023-03-19T01:13:06;100532.88;;;0.75;80.09
42761;BME280;31672;47.638;19.026;2023-03-19T01:18:10;100526.38;;;0.68;80.35
42761;BME280;31672;47.638;19.026;2023-03-19T01:23:14;100531.78;;;0.65;80.71
42761;BME280;31672;47.638;19.026;2023-03-19T01:28:18;100527.69;;;0.61;81.33
42761;BME280;31672;47.638;19.026;2023-03-19T01:33:21;100538.22;;;0.60;81.24
42761;BME280;31672;47.638;19.026;2023-03-19T01:38:28;100518.47;;;0.56;81.57
42761;BME280;31672;47.638;19.026;2023-03-19T01:43:31;100516.13;;;0.51;81.57
42761;BME280;31672;47.638;19.026;2023-03-19T01:48:50;100521.75;;;0.45;81.52
42761;BME280;31672;47.638;19.026;2023-03-19T01:53:59;100527.25;;;0.40;81.92
42761;BME280;31672;47.638;19.026;2023-03-19T01:59:16;100520.63;;;0.35;82.04
42761;BME280;31672;47.638;19.026;2023-03-19T02:04:25;100521.94;;;0.28;81.97
42761;BME280;31672;47.638;19.026;2023-03-19T02:09:29;100520.53;;;0.22;82.44
42761;BME280;31672;47.638;19.026;2023-03-19T02:14:33;100515.78;;;0.14;82.28
42761;BME280;31672;47.638;19.026;2023-03-19T02:19:46;100524.16;;;0.05;82.31
42761;BME280;31672;47.638;19.026;2023-03-19T02:25:27;100522.88;;;-0.02;82.32
42761;BME280;31672;47.638;19.026;2023-03-19T02:30:33;100525.00;;;-0.09;82.38
42761;BME280;31672;47.638;19.026;2023-03-19T02:35:37;100526.13;;;-0.13;82.99
42761;BME280;31672;47.638;19.026;2023-03-19T02:41:07;100532.28;;;-0.14;83.50
42761;BME280;31672;47.638;19.026;2023-03-19T02:46:12;100521.19;;;-0.17;83.56
42761;BME280;31672;47.638;19.026;2023-03-19T02:51:16;100522.28;;;-0.21;83.68
42761;BME280;31672;47.638;19.026;2023-03-19T02:56:21;100526.69;;;-0.22;84.06
42761;BME280;31672;47.638;19.026;2023-03-19T03:01:24;100536.47;;;-0.25;83.77
42761;BME280;31672;47.638;19.026;2023-03-19T03:06:28;100526.38;;;-0.32;84.21
42761;BME280;31672;47.638;19.026;2023-03-19T03:11:30;100531.03;;;-0.37;84.23
42761;BME280;31672;47.638;19.026;2023-03-19T03:16:33;100528.69;;;-0.41;84.31
42761;BME280;31672;47.638;19.026;2023-03-19T03:21:37;100524.56;;;-0.45;84.64
42761;BME280;31672;47.638;19.026;2023-03-19T03:26:40;100531.56;;;-0.46;84.94
42761;BME280;31672;47.638;19.026;2023-03-19T03:31:44;100523.75;;;-0.46;85.06
42761;BME280;31672;47.638;19.026;2023-03-19T03:36:47;100520.66;;;-0.38;85.52
42761;BME280;31672;47.638;19.026;2023-03-19T03:41:50;100516.28;;;-0.38;85.44
42761;BME280;31672;47.638;19.026;2023-03-19T03:46:54;100533.00;;;-0.40;85.76
42761;BME280;31672;47.638;19.026;2023-03-19T03:51:57;100526.25;;;-0.44;85.64
42761;BME280;31672;47.638;19.026;2023-03-19T03:57:01;100531.00;;;-0.51;85.78
42761;BME280;31672;47.638;19.026;2023-03-19T04:02:05;100527.16;;;-0.60;85.56
42761;BME280;31672;47.638;19.026;2023-03-19T04:07:09;100531.97;;;-0.68;85.79
42761;BME280;31672;47.638;19.026;2023-03-19T04:12:13;100527.19;;;-0.75;86.01
42761;BME280;31672;47.638;19.026;2023-03-19T04:17:16;100524.09;;;-0.82;85.73
42761;BME280;31672;47.638;19.026;2023-03-19T04:22:20;100508.78;;;-0.88;85.99
42761;BME280;31672;47.638;19.026;2023-03-19T04:27:22;100510.06;;;-0.95;86.11
42761;BME280;31672;47.638;19.026;2023-03-19T04:32:26;100505.84;;;-0.98;86.36
42761;BME280;31672;47.638;19.026;2023-03-19T04:37:29;100509.59;;;-1.02;86.65
42761;BME280;31672;47.638;19.026;2023-03-19T04:42:32;100518.41;;;-1.04;86.67
42761;BME280;31672;47.638;19.026;2023-03-19T04:47:35;100508.91;;;-1.05;86.97
42761;BME280;31672;47.638;19.026;2023-03-19T04:52:38;100520.50;;;-1.11;87.38
42761;BME280;31672;47.638;19.026;2023-03-19T04:57:41;100528.44;;;-1.13;87.25
42761;BME280;31672;47.638;19.026;2023-03-19T05:02:44;100522.44;;;-1.15;87.54
42761;BME280;31672;47.638;19.026;2023-03-19T05:07:48;100525.97;;;-1.16;87.28
42761;BME280;31672;47.638;19.026;2023-03-19T05:12:51;100538.09;;;-1.15;87.50
42761;BME280;31672;47.638;19.026;2023-03-19T05:17:55;100537.25;;;-1.15;87.90
42761;BME280;31672;47.638;19.026;2023-03-19T05:22:58;100541.47;;;-1.13;87.89
42761;BME280;31672;47.638;19.026;2023-03-19T05:28:02;100544.50;;;-1.04;88.41
42761;BME280;31672;47.638;19.026;2023-03-19T05:33:05;100546.16;;;-0.88;88.60
42761;BME280;31672;47.638;19.026;2023-03-19T05:38:08;100548.06;;;-0.75;88.86
42761;BME280;31672;47.638;19.026;2023-03-19T05:43:13;100545.97;;;-0.55;89.06
42761;BME280;31672;47.638;19.026;2023-03-19T05:48:16;100554.47;;;-0.35;89.11
42761;BME280;31672;47.638;19.026;2023-03-19T05:53:19;100558.31;;;-0.12;89.17
42761;BME280;31672;47.638;19.026;2023-03-19T05:58:23;100547.16;;;0.14;89.47
42761;BME280;31672;47.638;19.026;2023-03-19T06:03:26;100551.63;;;0.41;89.40
42761;BME280;31672;47.638;19.026;2023-03-19T06:08:29;100551.78;;;0.66;88.80
42761;BME280;31672;47.638;19.026;2023-03-19T06:13:32;100563.22;;;0.92;88.86
42761;BME280;31672;47.638;19.026;2023-03-19T06:18:36;100562.94;;;1.24;88.70
42761;BME280;31672;47.638;19.026;2023-03-19T06:23:40;100561.31;;;1.48;87.90
42761;BME280;31672;47.638;19.026;2023-03-19T06:28:43;100555.28;;;1.73;87.37
42761;BME280;31672;47.638;19.026;2023-03-19T06:33:46;100559.41;;;2.03;85.71
42761;BME280;31672;47.638;19.026;2023-03-19T06:38:49;100561.81;;;2.31;83.64
42761;BME280;31672;47.638;19.026;2023-03-19T06:43:53;100570.41;;;2.59;81.77
42761;BME280;31672;47.638;19.026;2023-03-19T06:48:56;100585.13;;;2.85;80.99
42761;BME280;31672;47.638;19.026;2023-03-19T06:54:00;100582.22;;;3.14;79.48
42761;BME280;31672;47.638;19.026;2023-03-19T06:59:03;100583.31;;;3.46;79.00
42761;BME280;31672;47.638;19.026;2023-03-19T07:04:07;100571.53;;;3.87;78.18
42761;BME280;31672;47.638;19.026;2023-03-19T07:09:11;100575.66;;;4.25;76.70
42761;BME280;31672;47.638;19.026;2023-03-19T07:14:14;100566.59;;;4.63;73.67
42761;BME280;31672;47.638;19.026;2023-03-19T07:19:17;100564.38;;;4.90;71.31
42761;BME280;31672;47.638;19.026;2023-03-19T07:24:21;100561.00;;;5.10;69.03
42761;BME280;31672;47.638;19.026;2023-03-19T07:29:24;100550.97;;;5.36;67.26
42761;BME280;31672;47.638;19.026;2023-03-19T07:34:27;100550.63;;;5.62;66.57
42761;BME280;31672;47.638;19.026;2023-03-19T07:39:30;100569.78;;;5.85;64.12
42761;BME280;31672;47.638;19.026;2023-03-19T07:44:33;100562.16;;;6.03;62.79
42761;BME280;31672;47.638;19.026;2023-03-19T07:49:36;100552.16;;;6.27;63.09
42761;BME280;31672;47.638;19.026;2023-03-19T07:54:39;100548.22;;;6.42;59.85
42761;BME280;31672;47.638;19.026;2023-03-19T07:59:43;100552.44;;;6.64;60.00
42761;BME280;31672;47.638;19.026;2023-03-19T08:04:46;100543.75;;;6.83;57.71
42761;BME280;31672;47.638;19.026;2023-03-19T08:09:49;100539.22;;;7.72;57.56
42761;BME280;31672;47.638;19.026;2023-03-19T08:14:52;100523.88;;;9.15;56.06
42761;BME280;31672;47.638;19.026;2023-03-19T08:19:56;100522.25;;;9.76;51.57
42761;BME280;31672;47.638;19.026;2023-03-19T08:24:59;100508.59;;;10.49;50.46
42761;BME280;31672;47.638;19.026;2023-03-19T08:30:05;100505.66;;;11.26;48.22
42761;BME280;31672;47.638;19.026;2023-03-19T08:35:09;100514.47;;;11.43;46.10
42761;BME280;31672;47.638;19.026;2023-03-19T08:40:13;100504.81;;;11.50;44.49
42761;BME280;31672;47.638;19.026;2023-03-19T08:45:16;100505.28;;;12.19;43.56
42761;BME280;31672;47.638;19.026;2023-03-19T08:50:19;100500.97;;;12.89;40.51
42761;BME280;31672;47.638;19.026;2023-03-19T08:55:22;100500.72;;;13.37;40.78
42761;BME280;31672;47.638;19.026;2023-03-19T09:00:26;100497.22;;;13.75;39.66
42761;BME280;31672;47.638;19.026;2023-03-19T09:05:29;100483.81;;;14.12;38.23
42761;BME280;31672;47.638;19.026;2023-03-19T09:10:33;100481.88;;;14.51;37.39
42761;BME280;31672;47.638;19.026;2023-03-19T09:15:37;100477.13;;;14.67;36.64
42761;BME280;31672;47.638;19.026;2023-03-19T09:20:41;100483.31;;;14.68;36.36
42761;BME280;31672;47.638;19.026;2023-03-19T09:25:44;100485.56;;;14.64;36.38
42761;BME280;31672;47.638;19.026;2023-03-19T09:30:49;100469.41;;;14.43;35.79
42761;BME280;31672;47.638;19.026;2023-03-19T09:35:53;100469.06;;;14.16;36.99
42761;BME280;31672;47.638;19.026;2023-03-19T09:46:47;100470.41;;;13.83;36.44
42761;BME280;31672;47.638;19.026;2023-03-19T09:52:43;100451.53;;;14.29;35.93
42761;BME280;31672;47.638;19.026;2023-03-19T09:57:20;100457.63;;;15.10;35.06
42761;BME280;31672;47.638;19.026;2023-03-19T10:02:37;100446.75;;;15.89;33.03
42761;BME280;31672;47.638;19.026;2023-03-19T10:07:55;100451.22;;;16.03;33.00
42761;BME280;31672;47.638;19.026;2023-03-19T10:13:43;100444.00;;;16.03;32.12
42761;BME280;31672;47.638;19.026;2023-03-19T10:18:51;100442.34;;;15.74;32.29
42761;BME280;31672;47.638;19.026;2023-03-19T10:24:21;100437.53;;;15.63;32.59
42761;BME280;31672;47.638;19.026;2023-03-19T10:29:24;100429.94;;;15.17;32.82
42761;BME280;31672;47.638;19.026;2023-03-19T10:34:36;100431.31;;;15.13;33.48
42761;BME280;31672;47.638;19.026;2023-03-19T10:39:43;100418.81;;;15.20;32.29
42761;BME280;31672;47.638;19.026;2023-03-19T10:44:52;100412.50;;;15.77;32.86
42761;BME280;31672;47.638;19.026;2023-03-19T10:49:58;100401.84;;;16.25;32.38
42761;BME280;31672;47.638;19.026;2023-03-19T11:00:23;100384.91;;;17.52;30.15
42761;BME280;31672;47.638;19.026;2023-03-19T11:05:32;100378.88;;;17.57;29.94
42761;BME280;31672;47.638;19.026;2023-03-19T11:10:45;100357.75;;;17.87;29.76
42761;BME280;31672;47.638;19.026;2023-03-19T11:15:51;100346.16;;;18.44;28.40
42761;BME280;31672;47.638;19.026;2023-03-19T11:21:28;100341.31;;;18.60;28.01
42761;BME280;31672;47.638;19.026;2023-03-19T11:26:32;100330.44;;;18.80;27.91
42761;BME280;31672;47.638;19.026;2023-03-19T11:53:41;100298.50;;;19.51;27.61
42761;BME280;31672;47.638;19.026;2023-03-19T12:42:49;100235.81;;;20.76;24.40
42761;BME280;31672;47.638;19.026;2023-03-19T13:04:34;100208.97;;;18.63;25.29
42761;BME280;31672;47.638;19.026;2023-03-19T13:09:57;100207.63;;;17.90;26.12
42761;BME280;31672;47.638;19.026;2023-03-19T13:15:10;100202.56;;;17.76;26.88
42761;BME280;31672;47.638;19.026;2023-03-19T13:20:56;100190.59;;;18.03;26.64
42761;BME280;31672;47.638;19.026;2023-03-19T13:26:09;100194.38;;;17.96;26.44
42761;BME280;31672;47.638;19.026;2023-03-19T13:31:20;100179.00;;;17.64;26.40
42761;BME280;31672;47.638;19.026;2023-03-19T13:36:27;100178.53;;;17.81;27.41
42761;BME280;31672;47.638;19.026;2023-03-19T13:46:40;100151.84;;;18.11;26.65
42761;BME280;31672;47.638;19.026;2023-03-19T13:51:47;100143.16;;;17.84;26.68
42761;BME280;31672;47.638;19.026;2023-03-19T14:07:36;100137.16;;;16.85;28.10
42761;BME280;31672;47.638;19.026;2023-03-19T14:12:42;100140.47;;;16.68;28.71
42761;BME280;31672;47.638;19.026;2023-03-19T14:18:01;100136.53;;;16.64;28.33
42761;BME280;31672;47.638;19.026;2023-03-19T14:23:11;100141.91;;;16.64;28.48
42761;BME280;31672;47.638;19.026;2023-03-19T14:28:47;100128.06;;;16.67;28.80
42761;BME280;31672;47.638;19.026;2023-03-19T14:39:32;100132.47;;;17.26;28.45
42761;BME280;31672;47.638;19.026;2023-03-19T14:45:19;100124.63;;;17.24;27.77
42761;BME280;31672;47.638;19.026;2023-03-19T14:56:40;100125.41;;;16.80;28.71
42761;BME280;31672;47.638;19.026;2023-03-19T15:01:49;100126.53;;;17.17;28.70
42761;BME280;31672;47.638;19.026;2023-03-19T15:06:56;100124.22;;;17.72;28.63
42761;BME280;31672;47.638;19.026;2023-03-19T15:17:29;100127.22;;;18.14;27.42
42761;BME280;31672;47.638;19.026;2023-03-19T15:22:33;100119.28;;;18.01;27.03
42761;BME280;31672;47.638;19.026;2023-03-19T15:27:37;100128.31;;;17.81;27.53
42761;BME280;31672;47.638;19.026;2023-03-19T15:32:40;100130.97;;;17.36;27.38
42761;BME280;31672;47.638;19.026;2023-03-19T15:38:09;100125.59;;;16.92;28.27
42761;BME280;31672;47.638;19.026;2023-03-19T15:43:13;100132.88;;;16.45;28.70
42761;BME280;31672;47.638;19.026;2023-03-19T15:48:24;100134.72;;;15.98;29.42
42761;BME280;31672;47.638;19.026;2023-03-19T15:53:32;100149.28;;;15.69;29.93
42761;BME280;31672;47.638;19.026;2023-03-19T15:58:41;100142.19;;;15.48;30.47
42761;BME280;31672;47.638;19.026;2023-03-19T16:04:03;100155.06;;;15.18;31.04
42761;BME280;31672;47.638;19.026;2023-03-19T16:09:26;100154.66;;;14.86;31.65
42761;BME280;31672;47.638;19.026;2023-03-19T16:14:42;100147.06;;;14.55;32.70
42761;BME280;31672;47.638;19.026;2023-03-19T16:19:58;100168.84;;;14.31;33.36
42761;BME280;31672;47.638;19.026;2023-03-19T16:25:02;100168.16;;;14.01;34.18
42761;BME280;31672;47.638;19.026;2023-03-19T16:30:25;100159.53;;;13.62;35.28
42761;BME280;31672;47.638;19.026;2023-03-19T16:35:30;100168.34;;;13.27;36.03
42761;BME280;31672;47.638;19.026;2023-03-19T16:40:41;100172.94;;;12.89;36.90
42761;BME280;31672;47.638;19.026;2023-03-19T16:45:50;100184.03;;;12.48;38.11
42761;BME280;31672;47.638;19.026;2023-03-19T16:50:53;100191.50;;;12.07;39.46
42761;BME280;31672;47.638;19.026;2023-03-19T16:55:58;100202.38;;;11.66;40.85
42761;BME280;31672;47.638;19.026;2023-03-19T17:01:16;100205.53;;;11.30;41.45
42761;BME280;31672;47.638;19.026;2023-03-19T17:06:20;100197.13;;;11.02;41.40
42761;BME280;31672;47.638;19.026;2023-03-19T17:11:49;100210.31;;;10.79;42.75
42761;BME280;31672;47.638;19.026;2023-03-19T17:16:55;100209.34;;;10.64;42.72
42761;BME280;31672;47.638;19.026;2023-03-19T17:21:59;100218.31;;;10.55;43.29
42761;BME280;31672;47.638;19.026;2023-03-19T17:27:03;100214.69;;;10.48;43.78
42761;BME280;31672;47.638;19.026;2023-03-19T17:32:16;100216.03;;;10.43;44.33
42761;BME280;31672;47.638;19.026;2023-03-19T17:37:20;100213.88;;;10.39;44.80
42761;BME280;31672;47.638;19.026;2023-03-19T17:42:24;100210.69;;;10.35;45.28
42761;BME280;31672;47.638;19.026;2023-03-19T17:47:27;100221.81;;;10.31;45.36
42761;BME280;31672;47.638;19.026;2023-03-19T17:52:30;100221.50;;;10.26;45.84
42761;BME280;31672;47.638;19.026;2023-03-19T17:57:33;100215.00;;;10.20;46.27
42761;BME280;31672;47.638;19.026;2023-03-19T18:02:37;100218.63;;;10.19;46.52
42761;BME280;31672;47.638;19.026;2023-03-19T18:07:41;100217.97;;;10.17;46.37
42761;BME280;31672;47.638;19.026;2023-03-19T18:12:44;100216.31;;;10.16;46.58
42761;BME280;31672;47.638;19.026;2023-03-19T18:17:55;100213.97;;;10.13;47.49
42761;BME280;31672;47.638;19.026;2023-03-19T18:22:58;100216.63;;;10.05;47.91
42761;BME280;31672;47.638;19.026;2023-03-19T18:28:03;100209.00;;;10.02;47.92
42761;BME280;31672;47.638;19.026;2023-03-19T18:33:15;100213.97;;;9.97;48.08
42761;BME280;31672;47.638;19.026;2023-03-19T18:38:22;100217.94;;;9.92;48.25
42761;BME280;31672;47.638;19.026;2023-03-19T18:43:25;100219.25;;;9.88;48.36
42761;BME280;31672;47.638;19.026;2023-03-19T18:48:29;100221.22;;;9.86;48.07
42761;BME280;31672;47.638;19.026;2023-03-19T18:53:33;100216.56;;;9.80;48.31
42761;BME280;31672;47.638;19.026;2023-03-19T18:58:37;100227.19;;;9.80;48.57
42761;BME280;31672;47.638;19.026;2023-03-19T19:03:41;100230.84;;;9.79;48.60
42761;BME280;31672;47.638;19.026;2023-03-19T19:08:45;100223.34;;;9.75;48.80
42761;BME280;31672;47.638;19.026;2023-03-19T19:13:54;100224.53;;;9.72;48.60
42761;BME280;31672;47.638;19.026;2023-03-19T19:18:58;100235.44;;;9.69;49.16
42761;BME280;31672;47.638;19.026;2023-03-19T19:24:03;100221.84;;;9.64;49.37
42761;BME280;31672;47.638;19.026;2023-03-19T19:29:06;100237.25;;;9.60;49.48
42761;BME280;31672;47.638;19.026;2023-03-19T19:34:18;100236.72;;;9.57;49.86
42761;BME280;31672;47.638;19.026;2023-03-19T19:39:21;100237.22;;;9.52;49.97
42761;BME280;31672;47.638;19.026;2023-03-19T19:44:24;100244.50;;;9.50;50.23
42761;BME280;31672;47.638;19.026;2023-03-19T19:49:27;100236.03;;;9.47;50.41
42761;BME280;31672;47.638;19.026;2023-03-19T19:54:30;100241.50;;;9.45;50.59
42761;BME280;31672;47.638;19.026;2023-03-19T19:59:34;100240.47;;;9.38;50.62
42761;BME280;31672;47.638;19.026;2023-03-19T20:04:37;100241.59;;;9.35;50.80
42761;BME280;31672;47.638;19.026;2023-03-19T20:09:40;100242.25;;;9.29;50.92
42761;BME280;31672;47.638;19.026;2023-03-19T20:14:44;100248.03;;;9.25;51.20
42761;BME280;31672;47.638;19.026;2023-03-19T20:19:48;100242.53;;;9.18;51.58
42761;BME280;31672;47.638;19.026;2023-03-19T20:24:51;100243.47;;;9.09;51.80
42761;BME280;31672;47.638;19.026;2023-03-19T20:29:54;100250.56;;;9.00;51.57
42761;BME280;31672;47.638;19.026;2023-03-19T20:34:57;100247.00;;;8.92;51.93
42761;BME280;31672;47.638;19.026;2023-03-19T20:40:03;100248.78;;;8.83;52.00
42761;BME280;31672;47.638;19.026;2023-03-19T20:45:12;100245.22;;;8.74;52.32
42761;BME280;31672;47.638;19.026;2023-03-19T20:50:26;100244.34;;;8.66;52.69
42761;BME280;31672;47.638;19.026;2023-03-19T20:55:33;100242.78;;;8.55;52.81
42761;BME280;31672;47.638;19.026;2023-03-19T21:00:37;100240.38;;;8.44;52.88
42761;BME280;31672;47.638;19.026;2023-03-19T21:05:40;100242.38;;;8.32;52.94
42761;BME280;31672;47.638;19.026;2023-03-19T21:10:45;100241.78;;;8.20;53.40
42761;BME280;31672;47.638;19.026;2023-03-19T21:15:49;100238.25;;;8.12;53.90
42761;BME280;31672;47.638;19.026;2023-03-19T21:20:54;100234.66;;;8.03;54.19
42761;BME280;31672;47.638;19.026;2023-03-19T21:26:14;100237.63;;;8.00;54.34
42761;BME280;31672;47.638;19.026;2023-03-19T21:31:19;100231.66;;;7.98;54.55
42761;BME280;31672;47.638;19.026;2023-03-19T21:36:22;100242.09;;;7.99;54.95
42761;BME280;31672;47.638;19.026;2023-03-19T21:41:29;100236.63;;;8.01;55.24
42761;BME280;31672;47.638;19.026;2023-03-19T21:46:36;100248.44;;;8.07;55.08
42761;BME280;31672;47.638;19.026;2023-03-19T21:51:39;100243.53;;;8.12;55.30
42761;BME280;31672;47.638;19.026;2023-03-19T21:56:44;100234.81;;;8.19;54.86
42761;BME280;31672;47.638;19.026;2023-03-19T22:01:48;100226.59;;;8.22;55.21
42761;BME280;31672;47.638;19.026;2023-03-19T22:06:51;100219.00;;;8.27;55.62
42761;BME280;31672;47.638;19.026;2023-03-19T22:11:54;100221.38;;;8.30;55.55
42761;BME280;31672;47.638;19.026;2023-03-19T22:16:57;100220.38;;;8.31;55.20
42761;BME280;31672;47.638;19.026;2023-03-19T22:22:01;100214.09;;;8.32;55.45
42761;BME280;31672;47.638;19.026;2023-03-19T22:27:11;100211.31;;;8.34;55.13
42761;BME280;31672;47.638;19.026;2023-03-19T22:32:17;100198.06;;;8.34;55.21
42761;BME280;31672;47.638;19.026;2023-03-19T22:37:26;100201.69;;;8.33;55.06
42761;BME280;31672;47.638;19.026;2023-03-19T22:42:29;100196.88;;;8.28;55.15
42761;BME280;31672;47.638;19.026;2023-03-19T22:47:36;100195.78;;;8.21;55.20
42761;BME280;31672;47.638;19.026;2023-03-19T22:52:39;100194.75;;;8.14;55.60
42761;BME280;31672;47.638;19.026;2023-03-19T22:57:43;100195.34;;;8.08;55.45
42761;BME280;31672;47.638;19.026;2023-03-19T23:02:55;100196.28;;;7.99;56.13
42761;BME280;31672;47.638;19.026;2023-03-19T23:08:03;100198.31;;;7.87;56.62
42761;BME280;31672;47.638;19.026;2023-03-19T23:13:09;100193.41;;;7.74;56.98
42761;BME280;31672;47.638;19.026;2023-03-19T23:18:18;100195.09;;;7.66;57.38
42761;BME280;31672;47.638;19.026;2023-03-19T23:23:23;100194.88;;;7.59;57.84
42761;BME280;31672;47.638;19.026;2023-03-19T23:28:31;100200.59;;;7.55;57.73
42761;BME280;31672;47.638;19.026;2023-03-19T23:33:34;100191.59;;;7.47;57.78
42761;BME280;31672;47.638;19.026;2023-03-19T23:38:37;100183.59;;;7.39;58.11
42761;BME280;31672;47.638;19.026;2023-03-19T23:43:41;100178.34;;;7.30;58.47
42761;BME280;31672;47.638;19.026;2023-03-19T23:48:45;100179.66;;;7.16;58.52
42761;BME280;31672;47.638;19.026;2023-03-19T23:53:48;100174.84;;;7.02;58.70
42761;BME280;31672;47.638;19.026;2023-03-19T23:58:53;100179.78;;;6.87;59.15
